createdAt,value
2023-03-26T00:00:48.480Z,4.78
2023-03-26T00:03:18.350Z,4.75
2023-03-26T00:05:48.135Z,4.18
2023-03-26T00:08:16.277Z,4.07
2023-03-26T00:10:43.420Z,7.47
2023-03-26T00:13:10.197Z,5.93
2023-03-26T00:15:37.820Z,3.03
2023-03-26T00:18:04.278Z,3.95
2023-03-26T00:20:32.714Z,3.35
2023-03-26T00:23:01.747Z,4.32
2023-03-26T00:25:28.372Z,5.72
2023-03-26T00:27:55.111Z,7.10
2023-03-26T00:30:21.555Z,4.85
2023-03-26T00:32:53.602Z,4.90
2023-03-26T00:35:20.752Z,3.47
2023-03-26T00:37:47.096Z,5.95
2023-03-26T00:40:13.629Z,4.78
2023-03-26T00:42:39.966Z,5.72
2023-03-26T00:45:07.337Z,5.78
2023-03-26T00:47:34.220Z,4.80
2023-03-26T00:50:01.114Z,5.10
2023-03-26T00:54:55.779Z,5.22
2023-03-26T00:57:32.988Z,4.22
2023-03-26T01:00:14.870Z,5.38
2023-03-26T01:02:41.369Z,3.58
2023-03-26T01:05:46.683Z,6.07
2023-03-26T01:08:19.368Z,7.45
2023-03-26T01:10:50.777Z,4.60
2023-03-26T01:13:23.429Z,6.82
2023-03-26T01:15:51.309Z,4.18
2023-03-26T01:18:20.675Z,5.30
2023-03-26T01:20:49.729Z,5.13
2023-03-26T01:23:23.553Z,5.50
2023-03-26T01:26:01.005Z,7.72
2023-03-26T01:28:32.080Z,3.15
2023-03-26T01:31:21.699Z,4.55
2023-03-26T01:34:04.296Z,5.50
2023-03-26T01:36:55.749Z,6.18
2023-03-26T01:39:27.225Z,4.65
2023-03-26T01:41:59.351Z,5.13
2023-03-26T01:44:38.522Z,10.23
2023-03-26T01:47:05.976Z,5.65
2023-03-26T01:49:32.378Z,5.40
2023-03-26T01:51:58.787Z,7.40
2023-03-26T01:54:28.440Z,6.63
2023-03-26T01:57:20.270Z,4.50
2023-03-26T02:00:12.423Z,6.38
2023-03-26T02:03:04.778Z,3.92
2023-03-26T02:05:37.741Z,6.03
2023-03-26T02:08:20.895Z,5.53
2023-03-26T02:10:52.688Z,6.82
2023-03-26T02:13:19.140Z,6.07
2023-03-26T02:16:00.236Z,7.18
2023-03-26T02:18:36.118Z,6.70
2023-03-26T02:21:05.428Z,4.63
2023-03-26T02:23:35.645Z,5.80
2023-03-26T02:26:07.342Z,8.00
2023-03-26T02:28:34.560Z,6.13
2023-03-26T02:31:01.822Z,7.40
2023-03-26T02:33:29.348Z,5.13
2023-03-26T02:36:01.829Z,7.20
2023-03-26T02:38:33.589Z,5.15
2023-03-26T02:41:00.143Z,6.63
2023-03-26T02:43:26.471Z,4.80
2023-03-26T02:45:53.073Z,5.30
2023-03-26T02:48:20.329Z,6.13
2023-03-26T02:50:49.988Z,5.75
2023-03-26T02:53:16.976Z,6.38
2023-03-26T02:55:43.330Z,8.10
2023-03-26T02:58:09.630Z,7.55
2023-03-26T03:00:35.963Z,6.78
2023-03-26T03:03:04.431Z,5.63
2023-03-26T03:05:34.210Z,4.07
2023-03-26T03:08:00.695Z,6.63
2023-03-26T03:10:27.990Z,7.63
2023-03-26T03:12:54.798Z,8.10
2023-03-26T03:17:47.641Z,4.90
2023-03-26T03:20:14.185Z,8.05
2023-03-26T03:22:41.173Z,7.68
2023-03-26T03:25:09.085Z,7.07
2023-03-26T03:27:39.236Z,5.97
2023-03-26T03:30:06.918Z,4.28
2023-03-26T03:32:33.282Z,7.63
2023-03-26T03:34:59.653Z,7.65
2023-03-26T03:37:26.913Z,5.78
2023-03-26T03:39:53.530Z,8.57
2023-03-26T03:42:19.846Z,5.38
2023-03-26T03:44:46.147Z,5.85
2023-03-26T03:47:13.764Z,8.38
2023-03-26T03:49:40.742Z,7.18
2023-03-26T03:52:07.300Z,6.63
2023-03-26T03:54:33.939Z,9.38
2023-03-26T03:57:01.866Z,8.88
2023-03-26T03:59:28.153Z,5.82
2023-03-26T04:01:54.532Z,9.00
2023-03-26T04:04:21.898Z,8.50
2023-03-26T04:06:48.208Z,5.47
2023-03-26T04:09:14.498Z,6.90
2023-03-26T04:11:40.767Z,7.70
2023-03-26T04:14:07.084Z,8.70
2023-03-26T04:16:33.456Z,6.10
2023-03-26T04:19:02.194Z,5.65
2023-03-26T04:21:30.476Z,4.00
2023-03-26T04:23:56.790Z,6.50
2023-03-26T04:26:23.369Z,6.38
2023-03-26T04:28:54.241Z,6.00
2023-03-26T04:31:24.268Z,7.15
2023-03-26T04:33:56.272Z,5.10
2023-03-26T04:36:27.124Z,7.78
2023-03-26T04:38:54.474Z,8.02
2023-03-26T04:41:22.429Z,6.20
2023-03-26T04:43:50.581Z,11.75
2023-03-26T04:46:23.364Z,7.20
2023-03-26T04:48:51.232Z,7.75
2023-03-26T04:51:21.914Z,8.48
2023-03-26T04:53:53.894Z,8.00
2023-03-26T04:56:39.009Z,5.95
2023-03-26T04:59:06.129Z,6.78
2023-03-26T05:01:33.026Z,6.55
2023-03-26T05:03:59.570Z,5.50
2023-03-26T05:06:28.657Z,7.03
2023-03-26T05:08:54.980Z,10.63
2023-03-26T05:11:21.344Z,10.50
2023-03-26T05:13:47.717Z,8.18
2023-03-26T05:16:14.069Z,8.80
2023-03-26T05:18:40.435Z,6.85
2023-03-26T05:21:07.069Z,6.07
2023-03-26T05:23:33.364Z,8.73
2023-03-26T05:25:59.714Z,4.40
2023-03-26T05:28:26.968Z,7.63
2023-03-26T05:30:54.279Z,5.28
2023-03-26T05:33:21.941Z,6.32
2023-03-26T05:35:59.014Z,6.57
2023-03-26T05:38:25.476Z,7.22
2023-03-26T05:40:52.301Z,7.10
2023-03-26T05:43:18.751Z,13.05
2023-03-26T05:45:47.588Z,9.57
2023-03-26T05:48:13.906Z,12.38
2023-03-26T05:50:40.285Z,6.63
2023-03-26T05:53:06.603Z,7.60
2023-03-26T05:55:34.763Z,12.82
2023-03-26T05:58:01.086Z,8.32
2023-03-26T06:00:27.699Z,10.70
2023-03-26T06:02:57.368Z,10.43
2023-03-26T06:05:24.378Z,7.70
2023-03-26T06:07:50.706Z,11.35
2023-03-26T06:10:18.095Z,8.18
2023-03-26T06:12:45.707Z,7.50
2023-03-26T06:15:12.055Z,9.35
2023-03-26T06:17:38.368Z,7.22
2023-03-26T06:20:09.294Z,7.55
2023-03-26T06:22:36.065Z,7.32
2023-03-26T06:25:02.346Z,6.97
2023-03-26T06:27:28.664Z,6.78
2023-03-26T06:29:55.327Z,10.20
2023-03-26T06:32:21.805Z,7.78
2023-03-26T06:34:48.157Z,5.97
2023-03-26T06:37:14.554Z,8.98
2023-03-26T06:39:40.915Z,8.13
2023-03-26T06:42:07.717Z,8.70
2023-03-26T06:44:34.217Z,9.35
2023-03-26T06:47:00.769Z,5.70
2023-03-26T06:49:27.249Z,8.30
2023-03-26T06:51:53.580Z,10.70
2023-03-26T06:54:19.928Z,7.93
2023-03-26T06:56:46.326Z,8.77
2023-03-26T06:59:12.781Z,7.97
2023-03-26T07:01:39.119Z,7.97
2023-03-26T07:04:05.720Z,8.38
2023-03-26T07:06:32.422Z,9.52
2023-03-26T07:08:58.737Z,8.48
2023-03-26T07:11:26.886Z,6.38
2023-03-26T07:13:53.298Z,7.50
2023-03-26T07:16:19.784Z,8.88
2023-03-26T07:18:46.254Z,8.38
2023-03-26T07:21:12.998Z,9.60
2023-03-26T07:23:39.639Z,6.68
2023-03-26T07:26:25.991Z,7.40
2023-03-26T07:29:06.406Z,7.68
2023-03-26T07:32:02.622Z,9.07
2023-03-26T07:34:51.998Z,9.93
2023-03-26T07:37:37.231Z,9.80
2023-03-26T07:40:17.574Z,8.95
2023-03-26T07:43:00.402Z,10.73
2023-03-26T07:45:39.715Z,7.38
2023-03-26T07:48:27.183Z,9.05
2023-03-26T07:50:54.940Z,11.32
2023-03-26T07:53:22.441Z,10.63
2023-03-26T07:56:04.263Z,8.43
2023-03-26T07:58:39.842Z,5.57
2023-03-26T08:01:39.720Z,6.65
2023-03-26T08:04:43.872Z,6.13
2023-03-26T08:07:35.070Z,8.27
2023-03-26T08:10:12.544Z,8.70
2023-03-26T08:12:54.950Z,11.25
2023-03-26T08:15:29.344Z,8.15
2023-03-26T08:18:01.842Z,8.25
2023-03-26T08:20:50.204Z,6.00
2023-03-26T08:23:27.542Z,8.35
2023-03-26T08:26:12.716Z,6.35
2023-03-26T08:28:52.591Z,5.25
2023-03-26T08:31:28.646Z,7.53
2023-03-26T08:33:55.032Z,8.13
2023-03-26T08:36:21.408Z,9.32
2023-03-26T08:38:48.363Z,7.82
2023-03-26T08:41:39.914Z,6.40
2023-03-26T08:44:40.719Z,8.63
2023-03-26T08:47:25.578Z,7.45
2023-03-26T08:50:29.672Z,8.55
2023-03-26T08:53:25.556Z,8.57
2023-03-26T08:56:28.879Z,10.00
2023-03-26T08:59:13.973Z,7.30
2023-03-26T09:01:49.417Z,6.80
2023-03-26T09:04:58.275Z,5.22
2023-03-26T09:08:00.161Z,6.53
2023-03-26T09:10:44.441Z,6.15
2023-03-26T09:13:16.636Z,4.63
2023-03-26T09:16:06.345Z,4.97
2023-03-26T09:18:58.963Z,8.05
2023-03-26T09:22:00.754Z,4.55
2023-03-26T09:25:08.543Z,4.93
2023-03-26T09:27:56.550Z,5.63
2023-03-26T09:30:53.936Z,5.25
2023-03-26T09:33:48.040Z,3.78
2023-03-26T09:36:32.470Z,5.43
2023-03-26T09:39:09.723Z,4.00
2023-03-26T09:41:59.669Z,2.42
2023-03-26T09:44:53.397Z,4.50
2023-03-26T09:47:39.355Z,6.03
2023-03-26T09:55:39.788Z,4.05
2023-03-26T09:58:27.154Z,7.78
2023-03-26T10:01:35.479Z,6.22
2023-03-26T10:04:38.505Z,8.57
2023-03-26T10:07:35.922Z,3.92
2023-03-26T10:10:14.962Z,3.60
2023-03-26T10:12:50.328Z,3.88
2023-03-26T10:15:42.827Z,3.50
2023-03-26T10:18:27.473Z,4.65
2023-03-26T10:21:06.985Z,3.05
2023-03-26T10:23:57.025Z,5.88
2023-03-26T10:27:08.333Z,2.05
2023-03-26T10:30:07.782Z,3.25
2023-03-26T10:32:51.181Z,4.95
2023-03-26T10:35:37.698Z,3.08
2023-03-26T10:38:33.545Z,2.13
2023-03-26T10:41:28.946Z,3.88
2023-03-26T10:44:25.757Z,3.47
2023-03-26T10:47:10.806Z,3.13
2023-03-26T10:50:10.444Z,3.05
2023-03-26T10:52:49.062Z,2.58
2023-03-26T10:55:46.568Z,2.78
2023-03-26T10:58:26.348Z,3.53
2023-03-26T11:01:24.018Z,3.40
2023-03-26T11:03:55.608Z,4.38
2023-03-26T11:06:45.286Z,3.38
2023-03-26T11:09:48.670Z,3.88
2023-03-26T11:12:47.500Z,4.35
2023-03-26T11:15:47.762Z,2.03
2023-03-26T11:18:44.708Z,3.88
2023-03-26T11:21:19.105Z,3.03
2023-03-26T11:24:05.022Z,5.72
2023-03-26T11:26:32.550Z,3.42
2023-03-26T11:29:32.904Z,4.22
2023-03-26T11:32:12.489Z,3.88
2023-03-26T11:34:59.287Z,3.78
2023-03-26T11:37:41.447Z,4.72
2023-03-26T11:40:21.316Z,3.45
2023-03-26T11:42:53.025Z,4.05
2023-03-26T11:45:24.086Z,2.78
2023-03-26T11:47:52.728Z,4.78
2023-03-26T11:50:27.593Z,3.97
2023-03-26T11:53:12.348Z,3.17
2023-03-26T11:55:43.791Z,4.18
2023-03-26T11:58:22.630Z,4.18
2023-03-26T12:00:50.389Z,4.55
2023-03-26T12:03:16.719Z,5.03
2023-03-26T12:05:58.679Z,4.28
2023-03-26T12:08:37.864Z,3.00
2023-03-26T12:11:10.194Z,3.90
2023-03-26T12:13:44.033Z,4.93
2023-03-26T12:16:21.354Z,3.88
2023-03-26T12:19:00.013Z,5.68
2023-03-26T12:21:27.056Z,3.95
2023-03-26T12:23:56.296Z,4.68
2023-03-26T12:26:48.833Z,5.57
2023-03-26T12:29:18.766Z,5.30
2023-03-26T12:31:53.220Z,2.60
2023-03-26T12:34:22.424Z,3.15
2023-03-26T12:36:52.183Z,2.67
2023-03-26T12:40:09.078Z,1.95
2023-03-26T12:44:46.407Z,1.95
2023-03-26T12:45:23.669Z,1.90
2023-03-26T12:47:58.313Z,3.33
2023-03-26T12:50:39.092Z,2.33
2023-03-26T12:53:24.727Z,2.22
2023-03-26T12:56:04.177Z,2.22
2023-03-26T12:59:12.182Z,1.48
2023-03-26T13:01:45.131Z,3.28
2023-03-26T13:04:26.503Z,2.47
2023-03-26T13:07:13.306Z,2.88
2023-03-26T13:10:08.458Z,2.85
2023-03-26T13:12:51.341Z,2.15
2023-03-26T13:15:30.427Z,2.60
2023-03-26T13:18:19.947Z,1.10
2023-03-26T13:20:49.300Z,1.65
2023-03-26T13:23:37.154Z,2.08
2023-03-26T13:26:12.958Z,1.00
2023-03-26T13:28:49.206Z,1.67
2023-03-26T13:31:32.650Z,1.63
2023-03-26T13:34:14.254Z,1.77
2023-03-26T13:37:21.141Z,1.55
2023-03-26T13:40:19.585Z,0.90
2023-03-26T13:43:01.058Z,1.45
2023-03-26T13:45:54.698Z,1.83
2023-03-26T13:48:39.044Z,2.83
2023-03-26T13:51:12.698Z,1.75
2023-03-26T13:53:51.264Z,3.92
2023-03-26T13:56:23.617Z,2.92
2023-03-26T13:58:59.370Z,1.80
2023-03-26T14:01:34.745Z,1.60
2023-03-26T14:04:25.681Z,1.95
2023-03-26T14:07:15.699Z,1.42
2023-03-26T14:10:05.722Z,2.28
2023-03-26T14:12:37.896Z,4.60
2023-03-26T14:15:13.746Z,2.15
2023-03-26T14:17:42.901Z,2.95
2023-03-26T14:20:19.867Z,1.33
2023-03-26T14:23:01.916Z,3.33
2023-03-26T14:25:44.322Z,2.22
2023-03-26T14:28:29.429Z,3.90
2023-03-26T14:31:19.499Z,2.30
2023-03-26T14:34:16.004Z,2.67
2023-03-26T14:37:12.897Z,5.80
2023-03-26T14:40:14.692Z,3.00
2023-03-26T14:43:00.828Z,2.08
2023-03-26T14:45:45.910Z,2.85
2023-03-26T14:48:38.020Z,4.32
2023-03-26T14:51:14.886Z,3.45
2023-03-26T14:53:48.507Z,4.60
2023-03-26T14:56:37.089Z,6.55
2023-03-26T14:59:37.066Z,4.00
2023-03-26T15:02:52.801Z,3.33
2023-03-26T15:06:03.926Z,6.40
2023-03-26T15:09:12.366Z,6.43
2023-03-26T15:12:12.267Z,4.57
2023-03-26T15:15:07.034Z,2.08
2023-03-26T15:18:07.985Z,2.60
2023-03-26T15:21:12.301Z,4.00
2023-03-26T15:24:00.444Z,2.22
2023-03-26T15:27:05.518Z,3.10
2023-03-26T15:30:09.403Z,2.05
2023-03-26T15:33:11.904Z,2.25
2023-03-26T15:35:59.869Z,4.00
2023-03-26T15:38:57.242Z,2.40
2023-03-26T15:41:31.614Z,1.83
2023-03-26T15:46:36.361Z,3.35
2023-03-26T15:49:19.611Z,2.00
2023-03-26T15:51:56.609Z,4.90
2023-03-26T15:54:31.568Z,3.83
2023-03-26T15:57:20.623Z,3.80
2023-03-26T16:00:22.296Z,2.47
2023-03-26T16:03:10.769Z,3.10
2023-03-26T16:05:56.237Z,3.22
2023-03-26T16:08:41.416Z,3.45
2023-03-26T16:11:12.427Z,5.07
2023-03-26T16:13:46.589Z,2.55
2023-03-26T16:16:16.040Z,1.52
2023-03-26T16:18:43.866Z,3.15
2023-03-26T16:21:31.431Z,1.67
2023-03-26T16:24:01.628Z,2.22
2023-03-26T16:26:55.488Z,2.00
2023-03-26T16:29:25.587Z,2.50
2023-03-26T16:32:06.891Z,2.13
2023-03-26T16:34:49.342Z,1.48
2023-03-26T16:37:40.723Z,1.40
2023-03-26T16:40:16.411Z,1.27
2023-03-26T16:43:02.557Z,1.38
2023-03-26T16:45:39.792Z,2.72
2023-03-26T16:48:44.298Z,1.90
2023-03-26T16:51:24.288Z,3.38
2023-03-26T16:53:51.231Z,4.00
2023-03-26T16:58:53.871Z,4.63
2023-03-26T17:01:56.691Z,6.15
2023-03-26T17:04:30.269Z,5.13
2023-03-26T17:07:13.985Z,3.50
2023-03-26T17:10:08.829Z,3.08
2023-03-26T17:12:44.991Z,2.42
2023-03-26T17:15:36.674Z,2.63
2023-03-26T17:18:25.570Z,2.10
2023-03-26T17:20:59.563Z,2.60
2023-03-26T17:23:44.074Z,2.63
2023-03-26T17:26:18.902Z,3.78
2023-03-26T17:29:23.208Z,2.88
2023-03-26T17:32:00.269Z,3.47
2023-03-26T17:34:38.951Z,4.00
2023-03-26T17:37:11.469Z,4.25
2023-03-26T17:39:40.672Z,3.50
2023-03-26T17:42:27.339Z,2.92
2023-03-26T17:44:58.541Z,2.80
2023-03-26T17:47:43.660Z,3.22
2023-03-26T17:50:22.561Z,3.60
2023-03-26T17:53:06.049Z,3.50
2023-03-26T17:55:36.798Z,2.35
2023-03-26T17:58:20.586Z,2.35
2023-03-26T18:00:50.994Z,2.10
2023-03-26T18:03:49.475Z,1.80
2023-03-26T18:06:40.610Z,2.30
2023-03-26T18:09:28.714Z,2.72
2023-03-26T18:12:13.156Z,4.82
2023-03-26T18:15:01.243Z,4.82
2023-03-26T18:17:38.458Z,1.85
2023-03-26T18:20:06.474Z,2.33
2023-03-26T18:22:33.436Z,1.63
2023-03-26T18:25:01.476Z,3.90
2023-03-26T18:27:40.465Z,3.08
2023-03-26T18:30:18.687Z,3.13
2023-03-26T18:33:12.405Z,1.95
2023-03-26T18:35:50.536Z,2.10
2023-03-26T18:38:36.081Z,3.67
2023-03-26T18:41:08.068Z,2.67
2023-03-26T18:43:44.104Z,1.75
2023-03-26T18:46:13.789Z,1.45
2023-03-26T18:48:40.355Z,2.92
2023-03-26T18:51:07.741Z,5.65
2023-03-26T18:53:51.060Z,2.38
2023-03-26T18:56:29.738Z,3.67
2023-03-26T18:58:58.921Z,3.28
2023-03-26T19:01:30.693Z,3.08
2023-03-26T19:04:04.795Z,3.45
2023-03-26T19:06:39.828Z,2.33
2023-03-26T19:09:23.872Z,3.67
2023-03-26T19:11:59.131Z,2.47
2023-03-26T19:14:27.491Z,2.80
2023-03-26T19:17:00.441Z,1.70
2023-03-26T19:19:32.067Z,1.35
2023-03-26T19:21:59.652Z,1.48
2023-03-26T19:24:26.952Z,1.80
2023-03-26T19:26:53.398Z,4.85
2023-03-26T19:29:29.816Z,2.25
2023-03-26T19:32:03.401Z,4.43
2023-03-26T19:34:38.421Z,1.98
2023-03-26T19:37:18.374Z,3.60
2023-03-26T19:39:51.435Z,2.30
2023-03-26T19:42:44.138Z,2.08
2023-03-26T19:45:17.746Z,4.30
2023-03-26T19:47:48.637Z,3.13
2023-03-26T19:50:29.376Z,2.10
2023-03-26T19:53:18.807Z,2.55
2023-03-26T19:55:55.600Z,2.88
2023-03-26T19:58:22.192Z,3.28
2023-03-26T20:00:48.510Z,3.72
2023-03-26T20:03:16.711Z,1.60
2023-03-26T20:05:43.527Z,2.85
2023-03-26T20:08:14.585Z,2.83
2023-03-26T20:10:42.447Z,3.50
2023-03-26T20:13:16.659Z,1.95
2023-03-26T20:15:47.090Z,2.30
2023-03-26T20:18:13.534Z,2.72
2023-03-26T20:20:41.287Z,2.40
2023-03-26T20:23:14.269Z,4.32
2023-03-26T20:25:49.556Z,2.35
2023-03-26T20:28:19.001Z,2.13
2023-03-26T20:30:47.157Z,2.15
2023-03-26T20:33:17.983Z,3.60
2023-03-26T20:35:45.037Z,2.33
2023-03-26T20:38:11.683Z,3.20
2023-03-26T20:40:38.345Z,1.67
2023-03-26T20:45:32.895Z,3.22
2023-03-26T20:47:59.385Z,1.90
2023-03-26T20:50:26.590Z,3.67
2023-03-26T20:52:53.305Z,2.35
2023-03-26T20:55:23.450Z,2.45
2023-03-26T20:57:50.885Z,2.67
2023-03-26T21:00:19.984Z,2.30
2023-03-26T21:02:47.228Z,1.55
2023-03-26T21:05:18.948Z,1.95
2023-03-26T21:07:45.614Z,3.30
2023-03-26T21:10:13.835Z,2.10
2023-03-26T21:13:10.725Z,3.08
2023-03-26T21:15:37.393Z,3.17
2023-03-26T21:18:04.266Z,2.70
2023-03-26T21:23:30.209Z,2.42
2023-03-26T21:26:06.264Z,2.25
2023-03-26T21:28:41.942Z,2.95
2023-03-26T21:31:21.074Z,3.45
2023-03-26T21:33:49.238Z,2.90
2023-03-26T21:36:17.179Z,5.57
2023-03-26T21:38:44.542Z,5.32
2023-03-26T21:41:35.814Z,4.82
2023-03-26T21:44:03.601Z,3.78
2023-03-26T21:46:31.789Z,2.78
2023-03-26T21:48:58.538Z,3.42
2023-03-26T21:51:25.239Z,2.88
2023-03-26T21:53:51.816Z,3.60
2023-03-26T21:56:34.599Z,2.10
2023-03-26T21:59:45.413Z,7.70
2023-03-26T22:02:30.944Z,2.08
2023-03-26T22:05:03.965Z,1.90
2023-03-26T22:07:59.390Z,1.50
2023-03-26T22:10:25.812Z,2.30
2023-03-26T22:12:52.185Z,2.30
2023-03-26T22:15:18.918Z,2.50
2023-03-26T22:17:53.651Z,1.75
2023-03-26T22:20:25.435Z,5.22
2023-03-26T22:22:53.160Z,4.47
2023-03-26T22:25:20.735Z,2.33
2023-03-26T22:27:48.532Z,2.05
2023-03-26T22:30:15.557Z,2.05
2023-03-26T22:35:09.156Z,2.53
2023-03-26T22:37:37.072Z,2.10
2023-03-26T22:40:13.530Z,2.40
2023-03-26T22:42:40.891Z,2.00
2023-03-26T22:45:09.204Z,2.15
2023-03-26T22:47:35.686Z,4.32
2023-03-26T22:50:03.187Z,2.67
2023-03-26T22:52:30.571Z,2.92
2023-03-26T22:54:57.199Z,3.00
2023-03-26T22:57:24.221Z,2.90
2023-03-26T23:02:17.364Z,3.30
2023-03-26T23:04:44.315Z,3.13
2023-03-26T23:09:37.021Z,3.15
2023-03-26T23:12:04.377Z,3.38
2023-03-26T23:14:32.274Z,3.22
2023-03-26T23:16:59.232Z,5.90
2023-03-26T23:19:25.745Z,3.30
2023-03-26T23:21:52.357Z,7.82
2023-03-26T23:24:18.681Z,3.90
2023-03-26T23:26:50.513Z,3.72
2023-03-26T23:29:17.521Z,5.38
2023-03-26T23:31:44.062Z,3.60
2023-03-26T23:34:10.910Z,6.05
2023-03-26T23:36:37.267Z,5.57
2023-03-26T23:39:04.648Z,3.58
2023-03-26T23:41:31.048Z,5.78
2023-03-26T23:43:57.330Z,5.07
2023-03-26T23:46:29.960Z,3.03
2023-03-26T23:48:59.549Z,4.32
2023-03-26T23:51:25.863Z,5.00
2023-03-26T23:53:52.673Z,3.67
2023-03-26T23:56:19.015Z,4.40
2023-03-26T23:58:45.394Z,5.05
